createdAt,value
2018-05-14T00:18:01.397Z,147791.27
2018-05-14T00:38:32.972Z,147785.69
2018-05-14T00:59:03.821Z,147803.11
2018-05-14T01:19:33.525Z,147906.28
2018-05-14T01:40:03.892Z,147921.19
2018-05-14T02:00:35.871Z,147895.72
2018-05-14T02:21:06.115Z,147887.03
2018-05-14T02:41:36.660Z,147839.17
2018-05-14T03:02:07.527Z,147864.63
2018-05-14T03:22:38.674Z,147888.27
2018-05-14T03:43:09.124Z,147934.89
2018-05-14T04:24:39.512Z,148280.14
2018-05-14T04:45:09.753Z,148909.41
2018-05-14T05:05:40.185Z,150572.03
2018-05-14T05:26:11.144Z,149384.94
2018-05-14T05:46:41.079Z,151302.52
2018-05-14T06:07:10.731Z,151555.50
2018-05-14T06:27:41.147Z,151303.14
2018-05-14T06:48:10.673Z,151209.00
2018-05-14T07:08:43.065Z,150986.97
2018-05-14T07:29:13.924Z,150258.34
2018-05-14T07:49:44.721Z,150671.70
2018-05-14T08:10:15.329Z,149420.53
2018-05-14T08:30:45.368Z,149064.75
2018-05-14T08:51:15.691Z,148936.89
2018-05-14T09:11:46.552Z,148880.12
2018-05-14T09:32:16.886Z,148858.28
2018-05-14T09:52:48.367Z,148798.45
2018-05-14T10:13:17.825Z,148872.66
2018-05-14T10:33:47.717Z,148804.06
2018-05-14T10:54:18.366Z,148829.63
2018-05-14T11:14:51.521Z,148853.30
2018-05-14T11:35:23.459Z,148759.81
2018-05-14T12:16:36.441Z,148820.92
2018-05-14T12:37:06.473Z,148784.75
2018-05-14T12:57:36.998Z,148575.95
2018-05-14T13:18:06.547Z,148610.23
2018-05-14T13:38:39.342Z,148782.27
2018-05-14T13:59:09.373Z,148702.44
2018-05-14T14:19:39.607Z,148436.42
2018-05-14T14:40:10.463Z,148377.28
2018-05-14T15:00:40.807Z,148660.69
2018-05-14T15:21:11.462Z,148350.55
2018-05-14T16:02:22.586Z,148194.27
2018-05-14T16:22:52.627Z,148145.11
2018-05-14T16:43:22.860Z,148132.06
2018-05-14T17:03:55.273Z,148058.66
2018-05-14T17:24:24.141Z,147911.25
2018-05-14T17:44:54.608Z,147824.22
2018-05-14T18:05:24.156Z,147791.89
2018-05-14T18:26:05.946Z,147836.69
2018-05-14T18:47:32.099Z,147770.11
2018-05-14T19:49:28.866Z,147747.14
2018-05-14T20:10:00.810Z,147780.05
2018-05-14T20:30:30.844Z,147771.36
2018-05-14T20:51:01.903Z,147768.88
2018-05-14T21:11:33.071Z,147748.39
2018-05-14T21:32:03.518Z,147771.36
2018-05-14T21:52:33.444Z,147701.17
2018-05-14T22:13:03.673Z,147666.98
2018-05-14T22:33:34.122Z,147645.27
2018-05-14T23:14:42.910Z,147677.53
2018-05-14T23:35:13.341Z,147662.03
2018-05-14T23:55:42.764Z,147617.92
